createdAt,value
2023-01-15T00:01:51.136Z,99865.44
2023-01-15T00:04:18.210Z,99862.97
2023-01-15T00:06:44.767Z,99866.75
2023-01-15T00:09:15.031Z,99874.59
2023-01-15T00:11:41.602Z,99867.81
2023-01-15T00:14:08.326Z,99869.16
2023-01-15T00:16:34.863Z,99863.16
2023-01-15T00:19:01.951Z,99872.38
2023-01-15T00:21:29.172Z,99861.19
2023-01-15T00:24:14.494Z,99874.50
2023-01-15T00:27:00.552Z,99882.13
2023-01-15T00:29:28.291Z,99854.59
2023-01-15T00:32:04.340Z,99875.75
2023-01-15T00:34:31.255Z,99855.88
2023-01-15T00:36:58.251Z,99851.56
2023-01-15T00:39:25.307Z,99848.00
2023-01-15T00:41:52.350Z,99858.88
2023-01-15T00:44:20.041Z,99858.25
2023-01-15T00:46:46.581Z,99858.56
2023-01-15T00:49:13.976Z,99873.47
2023-01-15T00:51:40.891Z,99872.06
2023-01-15T00:54:07.861Z,99888.16
2023-01-15T00:56:34.584Z,99871.25
2023-01-15T00:59:02.838Z,99892.19
2023-01-15T01:01:30.538Z,99886.41
2023-01-15T01:03:57.144Z,99886.09
2023-01-15T01:06:24.127Z,99887.50
2023-01-15T01:08:50.653Z,99882.06
2023-01-15T01:11:20.500Z,99886.34
2023-01-15T01:13:47.337Z,99879.81
2023-01-15T01:16:33.475Z,99882.53
2023-01-15T01:19:03.444Z,99887.97
2023-01-15T01:21:30.698Z,99882.47
2023-01-15T01:23:59.872Z,99877.03
2023-01-15T01:26:27.764Z,99879.50
2023-01-15T01:28:57.071Z,99886.50
2023-01-15T01:31:24.180Z,99880.50
2023-01-15T01:33:56.606Z,99886.44
2023-01-15T01:36:30.211Z,99875.78
2023-01-15T01:38:57.439Z,99876.84
2023-01-15T01:41:24.637Z,99889.41
2023-01-15T01:44:06.016Z,99884.78
2023-01-15T01:46:35.530Z,99889.28
2023-01-15T01:49:10.433Z,99902.88
2023-01-15T01:51:56.440Z,99891.19
2023-01-15T01:54:25.298Z,99892.03
2023-01-15T01:56:52.336Z,99887.06
2023-01-15T01:59:21.596Z,99882.47
2023-01-15T02:01:49.367Z,99895.47
2023-01-15T02:04:22.174Z,99891.34
2023-01-15T02:06:48.718Z,99888.63
2023-01-15T02:09:15.331Z,99887.81
2023-01-15T02:11:42.004Z,99894.34
2023-01-15T02:14:43.435Z,99894.06
2023-01-15T02:17:16.645Z,99895.41
2023-01-15T02:20:09.292Z,99881.81
2023-01-15T02:23:10.450Z,99889.13
2023-01-15T02:25:54.353Z,99876.06
2023-01-15T02:28:44.895Z,99878.50
2023-01-15T02:31:21.265Z,99866.25
2023-01-15T02:34:16.945Z,99871.06
2023-01-15T02:37:03.402Z,99871.91
2023-01-15T02:39:32.918Z,99865.56
2023-01-15T02:42:04.227Z,99858.25
2023-01-15T02:44:41.843Z,99861.22
2023-01-15T02:47:12.665Z,99860.63
2023-01-15T02:49:41.704Z,99863.81
2023-01-15T02:52:22.742Z,99865.72
2023-01-15T02:54:55.889Z,99864.31
2023-01-15T02:57:26.824Z,99868.94
2023-01-15T02:59:58.624Z,99870.91
2023-01-15T03:02:29.883Z,99859.72
2023-01-15T03:05:09.854Z,99865.66
2023-01-15T03:07:47.765Z,99870.81
2023-01-15T03:10:15.506Z,99869.44
2023-01-15T03:13:04.264Z,99875.91
2023-01-15T03:16:20.500Z,99870.25
2023-01-15T03:18:56.891Z,99865.31
2023-01-15T03:21:31.540Z,99874.75
2023-01-15T03:24:01.712Z,99869.81
2023-01-15T03:26:28.903Z,99856.56
2023-01-15T03:28:56.161Z,99846.19
2023-01-15T03:31:23.639Z,99846.75
2023-01-15T03:33:50.494Z,99842.91
2023-01-15T03:36:20.123Z,99850.47
2023-01-15T03:38:50.831Z,99841.75
2023-01-15T03:41:59.216Z,99845.53
2023-01-15T03:45:05.105Z,99865.94
2023-01-15T03:47:39.690Z,99869.38
2023-01-15T03:50:41.367Z,99873.19
2023-01-15T03:53:18.531Z,99861.72
2023-01-15T03:55:57.683Z,99841.44
2023-01-15T03:58:29.328Z,99854.63
2023-01-15T04:01:03.797Z,99840.50
2023-01-15T04:03:33.653Z,99845.34
2023-01-15T04:06:01.795Z,99852.69
2023-01-15T04:08:33.496Z,99846.41
2023-01-15T04:11:01.796Z,99841.00
2023-01-15T04:13:32.088Z,99838.00
2023-01-15T04:15:59.278Z,99841.22
2023-01-15T04:18:26.022Z,99849.13
2023-01-15T04:20:54.666Z,99833.34
2023-01-15T04:23:21.893Z,99846.91
2023-01-15T04:25:48.437Z,99838.66
2023-01-15T04:28:15.147Z,99853.63
2023-01-15T04:30:43.390Z,99847.66
2023-01-15T04:33:10.083Z,99849.28
2023-01-15T04:35:38.011Z,99851.66
2023-01-15T04:38:04.602Z,99858.97
2023-01-15T04:40:50.104Z,99854.63
2023-01-15T04:43:35.472Z,99848.38
2023-01-15T04:46:02.039Z,99854.03
2023-01-15T04:48:28.559Z,99858.28
2023-01-15T04:50:55.092Z,99862.91
2023-01-15T04:53:21.655Z,99855.84
2023-01-15T04:55:48.136Z,99857.13
2023-01-15T04:58:14.767Z,99863.38
2023-01-15T05:00:41.575Z,99864.44
2023-01-15T05:03:08.620Z,99858.44
2023-01-15T05:05:35.120Z,99877.44
2023-01-15T05:08:01.615Z,99857.63
2023-01-15T05:10:28.132Z,99867.09
2023-01-15T05:12:54.662Z,99872.50
2023-01-15T05:15:21.137Z,99867.31
2023-01-15T05:17:47.689Z,99882.31
2023-01-15T05:20:15.400Z,99869.78
2023-01-15T05:22:41.901Z,99876.78
2023-01-15T05:25:08.655Z,99869.19
2023-01-15T05:27:35.127Z,99854.47
2023-01-15T05:30:01.715Z,99849.28
2023-01-15T05:32:29.809Z,99856.59
2023-01-15T05:34:56.321Z,99844.09
2023-01-15T05:37:22.889Z,99843.03
2023-01-15T05:39:49.418Z,99836.78
2023-01-15T05:42:15.932Z,99843.03
2023-01-15T05:44:42.407Z,99838.66
2023-01-15T05:47:10.604Z,99851.16
2023-01-15T05:49:37.710Z,99849.78
2023-01-15T05:52:04.340Z,99849.50
2023-01-15T05:54:33.598Z,99854.59
2023-01-15T05:57:01.346Z,99845.06
2023-01-15T05:59:29.435Z,99851.88
2023-01-15T06:01:57.104Z,99849.19
2023-01-15T06:04:25.151Z,99841.25
2023-01-15T06:06:53.382Z,99849.41
2023-01-15T06:09:22.894Z,99854.03
2023-01-15T06:11:49.874Z,99849.91
2023-01-15T06:14:16.426Z,99847.81
2023-01-15T06:16:42.976Z,99852.56
2023-01-15T06:19:11.516Z,99853.84
2023-01-15T06:21:38.040Z,99866.00
2023-01-15T06:24:04.885Z,99869.56
2023-01-15T06:26:31.609Z,99879.78
2023-01-15T06:28:58.199Z,99879.78
2023-01-15T06:31:28.373Z,99886.88
2023-01-15T06:33:55.491Z,99886.06
2023-01-15T06:36:23.721Z,99872.75
2023-01-15T06:38:50.632Z,99871.91
2023-01-15T06:41:37.945Z,99881.47
2023-01-15T06:44:43.127Z,99885.22
2023-01-15T06:47:21.010Z,99881.94
2023-01-15T06:49:55.806Z,99869.88
2023-01-15T06:52:24.381Z,99874.03
2023-01-15T06:54:51.093Z,99869.88
2023-01-15T06:57:18.948Z,99870.94
2023-01-15T06:59:45.806Z,99864.69
2023-01-15T07:02:12.294Z,99863.63
2023-01-15T07:04:38.905Z,99874.72
2023-01-15T07:07:05.531Z,99883.66
2023-01-15T07:09:32.106Z,99892.06
2023-01-15T07:11:58.652Z,99892.88
2023-01-15T07:14:28.061Z,99894.19
2023-01-15T07:16:55.521Z,99897.94
2023-01-15T07:19:22.176Z,99897.94
2023-01-15T07:21:48.939Z,99896.31
2023-01-15T07:24:16.421Z,99905.50
2023-01-15T07:26:43.725Z,99907.63
2023-01-15T07:29:10.319Z,99895.72
2023-01-15T07:31:37.470Z,99906.44
2023-01-15T07:34:05.206Z,99907.03
2023-01-15T07:36:32.017Z,99903.50
2023-01-15T07:38:58.621Z,99905.63
2023-01-15T07:41:45.430Z,99906.44
2023-01-15T07:44:30.887Z,99905.88
2023-01-15T07:47:16.279Z,99908.56
2023-01-15T07:49:46.531Z,99914.00
2023-01-15T07:52:18.770Z,99925.91
2023-01-15T07:54:49.365Z,99927.00
2023-01-15T07:57:19.150Z,99926.38
2023-01-15T07:59:45.666Z,99899.47
2023-01-15T08:02:12.960Z,99924.72
2023-01-15T08:04:40.080Z,99924.16
2023-01-15T08:07:06.933Z,99931.81
2023-01-15T08:09:33.457Z,99927.91
2023-01-15T08:12:19.997Z,99930.03
2023-01-15T08:15:05.276Z,99924.28
2023-01-15T08:17:38.283Z,99929.22
2023-01-15T08:20:09.055Z,99933.47
2023-01-15T08:22:35.712Z,99940.53
2023-01-15T08:25:02.226Z,99946.19
2023-01-15T08:27:29.497Z,99939.94
2023-01-15T08:29:56.787Z,99928.25
2023-01-15T08:32:24.449Z,99939.09
2023-01-15T08:34:51.461Z,99932.84
2023-01-15T08:37:18.068Z,99928.50
2023-01-15T08:39:45.877Z,99935.56
2023-01-15T08:42:12.412Z,99927.69
2023-01-15T08:44:38.874Z,99930.13
2023-01-15T08:47:05.353Z,99923.88
2023-01-15T08:49:31.889Z,99936.66
2023-01-15T08:51:58.401Z,99918.47
2023-01-15T08:54:25.545Z,99912.47
2023-01-15T08:56:52.298Z,99914.97
2023-01-15T08:59:19.349Z,99926.59
2023-01-15T09:01:46.015Z,99917.66
2023-01-15T09:04:17.874Z,99922.00
2023-01-15T09:06:45.111Z,99922.63
2023-01-15T09:09:12.151Z,99917.41
2023-01-15T09:11:44.224Z,99910.94
2023-01-15T09:14:56.906Z,99924.84
2023-01-15T09:17:01.122Z,99925.19
2023-01-15T09:19:27.616Z,99918.72
2023-01-15T09:21:54.151Z,99921.19
2023-01-15T09:24:20.648Z,99927.78
2023-01-15T09:26:47.642Z,99914.00
2023-01-15T09:29:14.204Z,99930.06
2023-01-15T09:31:40.682Z,99936.66
2023-01-15T09:34:07.161Z,99915.31
2023-01-15T09:36:35.208Z,99919.75
2023-01-15T09:39:03.446Z,99921.59
2023-01-15T09:42:09.636Z,99924.88
2023-01-15T09:44:54.364Z,99954.72
2023-01-15T09:47:36.001Z,99930.28
2023-01-15T09:50:39.774Z,99929.47
2023-01-15T09:53:22.457Z,99923.69
2023-01-15T09:55:53.254Z,99915.78
2023-01-15T09:58:27.119Z,99925.69
2023-01-15T10:00:53.862Z,99933.13
2023-01-15T10:03:35.738Z,99939.72
2023-01-15T10:06:14.111Z,99954.56
2023-01-15T10:08:47.418Z,99948.22
2023-01-15T10:11:17.516Z,99942.28
2023-01-15T10:13:48.953Z,99949.72
2023-01-15T10:16:23.265Z,99938.16
2023-01-15T10:18:50.161Z,99946.63
2023-01-15T10:21:40.433Z,99948.28
2023-01-15T10:24:38.954Z,99945.31
2023-01-15T10:27:18.209Z,99930.69
2023-01-15T10:30:23.101Z,99941.91
2023-01-15T10:33:02.367Z,99946.72
2023-01-15T10:35:40.173Z,99929.38
2023-01-15T10:38:36.809Z,99963.97
2023-01-15T10:41:28.778Z,99958.53
2023-01-15T10:44:41.568Z,99965.03
2023-01-15T10:47:15.288Z,99957.38
2023-01-15T10:49:42.698Z,99947.31
2023-01-15T10:52:18.349Z,99943.91
2023-01-15T10:54:50.215Z,99946.34
2023-01-15T10:57:36.777Z,99943.25
2023-01-15T11:00:04.008Z,99935.84
2023-01-15T11:02:35.129Z,99957.00
2023-01-15T11:05:02.502Z,99961.34
2023-01-15T11:08:03.336Z,99959.69
2023-01-15T11:10:28.987Z,99942.81
2023-01-15T11:13:16.881Z,99941.53
2023-01-15T11:16:08.826Z,99960.03
2023-01-15T11:18:58.941Z,99964.16
2023-01-15T11:21:27.654Z,99970.75
2023-01-15T11:23:57.711Z,99946.25
2023-01-15T11:26:27.317Z,99972.31
2023-01-15T11:28:55.583Z,99973.41
2023-01-15T11:31:22.524Z,99971.75
2023-01-15T11:34:01.027Z,99985.31
2023-01-15T11:36:29.443Z,99958.16
2023-01-15T11:38:56.443Z,99970.91
2023-01-15T11:41:24.981Z,99978.00
2023-01-15T11:44:17.250Z,99959.00
2023-01-15T11:47:04.704Z,99927.19
2023-01-15T11:49:49.496Z,99976.19
2023-01-15T11:52:24.587Z,99971.94
2023-01-15T11:54:53.886Z,99964.50
2023-01-15T11:57:30.442Z,99967.00
2023-01-15T12:00:01.174Z,99959.06
2023-01-15T12:02:45.524Z,99976.91
2023-01-15T12:05:28.729Z,99957.47
2023-01-15T12:07:58.502Z,99964.91
2023-01-15T12:10:45.821Z,99966.22
2023-01-15T12:13:40.835Z,99972.97
2023-01-15T12:16:29.440Z,99963.03
2023-01-15T12:19:10.193Z,99945.22
2023-01-15T12:21:44.757Z,99953.16
2023-01-15T12:24:40.250Z,99948.78
2023-01-15T12:27:07.313Z,99951.97
2023-01-15T12:29:48.493Z,99944.88
2023-01-15T12:32:19.587Z,99934.88
2023-01-15T12:34:54.179Z,99940.91
2023-01-15T12:37:24.723Z,99947.94
2023-01-15T12:39:59.183Z,99940.16
2023-01-15T12:42:46.313Z,99957.25
2023-01-15T12:45:18.223Z,99946.19
2023-01-15T12:48:02.230Z,99950.41
2023-01-15T12:50:31.589Z,99944.03
2023-01-15T12:53:19.665Z,99952.78
2023-01-15T12:55:56.200Z,99948.53
2023-01-15T12:58:38.263Z,99952.28
2023-01-15T13:01:25.045Z,99938.34
2023-01-15T13:04:03.871Z,99935.53
2023-01-15T13:06:32.070Z,99934.47
2023-01-15T13:09:25.651Z,99936.94
2023-01-15T13:11:52.314Z,99923.59
2023-01-15T13:14:21.584Z,99956.19
2023-01-15T13:17:04.375Z,99931.25
2023-01-15T13:19:40.590Z,99929.72
2023-01-15T13:22:17.357Z,99943.63
2023-01-15T13:25:17.644Z,99932.41
2023-01-15T13:27:59.248Z,99942.78
2023-01-15T13:30:54.705Z,99949.28
2023-01-15T13:33:27.283Z,99931.34
2023-01-15T13:36:08.925Z,99949.53
2023-01-15T13:38:41.924Z,99948.97
2023-01-15T13:41:09.099Z,99944.81
2023-01-15T13:43:40.546Z,99944.31
2023-01-15T13:46:20.632Z,99948.13
2023-01-15T13:48:50.894Z,99951.56
2023-01-15T13:51:28.850Z,99950.84
2023-01-15T13:53:57.999Z,99957.31
2023-01-15T13:56:33.620Z,99950.13
2023-01-15T13:59:05.367Z,99954.25
2023-01-15T14:01:37.175Z,99946.09
2023-01-15T14:04:04.030Z,99944.88
2023-01-15T14:06:43.843Z,99953.53
2023-01-15T14:09:17.433Z,99955.16
2023-01-15T14:12:11.892Z,99962.09
2023-01-15T14:14:58.565Z,99976.50
2023-01-15T14:18:08.369Z,99959.13
2023-01-15T14:20:41.873Z,99974.47
2023-01-15T14:23:43.304Z,99969.03
2023-01-15T14:26:36.343Z,99967.75
2023-01-15T14:29:11.912Z,99952.50
2023-01-15T14:32:16.776Z,99959.59
2023-01-15T14:34:43.616Z,99970.78
2023-01-15T14:37:12.844Z,99967.47
2023-01-15T14:39:58.762Z,99958.25
2023-01-15T14:42:51.853Z,99958.88
2023-01-15T14:45:25.747Z,99968.06
2023-01-15T14:47:57.375Z,99976.78
2023-01-15T14:50:38.225Z,99967.59
2023-01-15T14:53:30.821Z,99985.53
2023-01-15T14:56:18.513Z,99979.78
2023-01-15T14:59:20.049Z,99979.06
2023-01-15T15:02:00.678Z,99972.19
2023-01-15T15:04:48.762Z,99985.22
2023-01-15T15:07:18.700Z,99970.78
2023-01-15T15:10:15.156Z,99983.06
2023-01-15T15:13:09.615Z,99981.06
2023-01-15T15:15:44.032Z,99975.56
2023-01-15T15:18:32.090Z,99997.78
2023-01-15T15:20:58.550Z,100007.47
2023-01-15T15:23:39.999Z,99989.25
2023-01-15T15:26:21.815Z,99989.50
2023-01-15T15:29:12.833Z,99991.75
2023-01-15T15:31:56.714Z,99985.84
2023-01-15T15:34:28.994Z,100001.59
2023-01-15T15:37:00.550Z,99992.50
2023-01-15T15:39:46.697Z,99998.41
2023-01-15T15:42:42.399Z,100004.31
2023-01-15T15:45:46.532Z,99995.56
2023-01-15T15:48:39.541Z,99998.22
2023-01-15T15:51:25.328Z,100003.03
2023-01-15T15:54:10.351Z,99999.16
2023-01-15T15:56:39.034Z,99994.78
2023-01-15T15:59:05.905Z,100000.13
2023-01-15T16:01:39.060Z,100005.19
2023-01-15T16:04:05.897Z,100000.22
2023-01-15T16:06:33.295Z,100003.19
2023-01-15T16:09:04.475Z,100003.19
2023-01-15T16:11:33.266Z,100000.13
2023-01-15T16:14:05.877Z,99993.25
2023-01-15T16:16:33.021Z,100024.78
2023-01-15T16:19:02.028Z,100012.75
2023-01-15T16:21:34.781Z,100017.59
2023-01-15T16:24:07.077Z,100014.88
2023-01-15T16:26:42.507Z,100014.06
2023-01-15T16:29:21.949Z,100020.53
2023-01-15T16:31:48.665Z,100024.56
2023-01-15T16:34:24.412Z,100022.06
2023-01-15T16:36:51.600Z,100027.28
2023-01-15T16:39:26.867Z,100025.84
2023-01-15T16:41:57.499Z,100043.44
2023-01-15T16:44:25.895Z,100030.91
2023-01-15T16:46:59.190Z,100039.06
2023-01-15T16:49:29.009Z,100025.97
2023-01-15T16:52:00.825Z,100047.44
2023-01-15T16:54:30.447Z,100048.50
2023-01-15T16:56:59.346Z,100044.97
2023-01-15T16:59:25.785Z,100042.84
2023-01-15T17:01:56.880Z,100036.47
2023-01-15T17:04:33.355Z,100037.06
2023-01-15T17:07:08.251Z,100049.19
2023-01-15T17:09:37.762Z,100047.53
2023-01-15T17:12:09.429Z,100051.34
2023-01-15T17:14:35.917Z,100041.88
2023-01-15T17:17:25.101Z,100049.91
2023-01-15T17:19:53.552Z,100043.06
2023-01-15T17:22:28.049Z,100040.66
2023-01-15T17:25:00.027Z,100042.78
2023-01-15T17:27:27.410Z,100049.31
2023-01-15T17:29:54.212Z,100046.22
2023-01-15T17:32:28.521Z,100055.63
2023-01-15T17:34:55.150Z,100055.03
2023-01-15T17:37:21.719Z,100055.50
2023-01-15T17:39:48.257Z,100052.19
2023-01-15T17:42:17.369Z,100059.75
2023-01-15T17:44:44.440Z,100043.47
2023-01-15T17:47:10.985Z,100054.78
2023-01-15T17:49:37.440Z,100041.22
2023-01-15T17:52:12.665Z,100042.28
2023-01-15T17:54:57.806Z,100036.13
2023-01-15T17:57:42.785Z,100047.34
2023-01-15T18:00:29.058Z,100048.63
2023-01-15T18:03:14.460Z,100039.06
2023-01-15T18:05:43.118Z,100046.25
2023-01-15T18:08:11.053Z,100048.97
2023-01-15T18:10:37.601Z,100040.00
2023-01-15T18:13:04.252Z,100034.22
2023-01-15T18:15:30.712Z,100039.03
2023-01-15T18:17:57.268Z,100032.44
2023-01-15T18:20:23.872Z,100039.16
2023-01-15T18:22:50.478Z,100022.28
2023-01-15T18:25:17.129Z,100032.53
2023-01-15T18:27:43.736Z,100028.53
2023-01-15T18:30:15.083Z,100037.34
2023-01-15T18:32:42.766Z,100034.63
2023-01-15T18:35:09.446Z,100024.03
2023-01-15T18:37:36.175Z,100028.63
2023-01-15T18:40:02.689Z,100036.97
2023-01-15T18:42:47.886Z,100045.56
2023-01-15T18:45:33.230Z,100031.44
2023-01-15T18:48:02.837Z,100037.91
2023-01-15T18:50:29.695Z,100033.78
2023-01-15T18:52:56.254Z,100029.16
2023-01-15T18:55:27.964Z,100031.66
2023-01-15T18:57:55.675Z,100027.97
2023-01-15T19:00:24.383Z,100023.75
2023-01-15T19:02:51.897Z,100024.34
2023-01-15T19:05:18.815Z,100020.25
2023-01-15T19:07:46.198Z,100019.41
2023-01-15T19:10:14.992Z,100017.28
2023-01-15T19:12:42.064Z,100009.16
2023-01-15T19:15:30.051Z,100000.06
2023-01-15T19:18:14.996Z,100013.75
2023-01-15T19:20:41.591Z,100012.09
2023-01-15T19:23:09.267Z,100003.16
2023-01-15T19:25:43.896Z,100001.69
2023-01-15T19:28:17.502Z,99996.06
2023-01-15T19:31:04.652Z,99984.63
2023-01-15T19:33:31.614Z,99965.53
2023-01-15T19:35:58.193Z,99962.72
2023-01-15T19:38:24.738Z,99973.34
2023-01-15T19:40:51.256Z,99961.91
2023-01-15T19:43:35.940Z,99963.19
2023-01-15T19:46:21.324Z,99952.09
2023-01-15T19:49:06.786Z,99952.09
2023-01-15T19:51:51.885Z,99947.50
2023-01-15T19:54:38.319Z,99940.47
2023-01-15T19:57:04.855Z,99941.25
2023-01-15T19:59:31.933Z,99924.22
2023-01-15T20:02:02.069Z,99919.47
2023-01-15T20:04:30.912Z,99924.28
2023-01-15T20:06:57.437Z,99926.41
2023-01-15T20:09:23.938Z,99918.88
2023-01-15T20:12:08.763Z,99921.22
2023-01-15T20:14:35.226Z,99919.34
2023-01-15T20:17:01.832Z,99916.50
2023-01-15T20:19:28.408Z,99904.59
2023-01-15T20:21:54.952Z,99906.41
2023-01-15T20:24:22.939Z,99893.31
2023-01-15T20:26:49.428Z,99897.66
2023-01-15T20:29:15.932Z,99879.75
2023-01-15T20:31:42.647Z,99884.94
2023-01-15T20:34:09.154Z,99879.75
2023-01-15T20:36:35.809Z,99879.75
2023-01-15T20:39:04.592Z,99870.78
2023-01-15T20:41:49.466Z,99867.88
2023-01-15T20:44:34.251Z,99871.19
2023-01-15T20:47:00.778Z,99861.75
2023-01-15T20:49:32.386Z,99859.28
2023-01-15T20:52:01.213Z,99858.81
2023-01-15T20:54:28.106Z,99855.88
2023-01-15T20:56:54.831Z,99847.16
2023-01-15T20:59:21.358Z,99845.84
2023-01-15T21:01:47.962Z,99842.09
2023-01-15T21:04:14.650Z,99836.91
2023-01-15T21:06:41.233Z,99835.84
2023-01-15T21:09:07.819Z,99829.59
2023-01-15T21:11:34.334Z,99810.06
2023-01-15T21:14:00.977Z,99818.75
2023-01-15T21:16:27.525Z,99813.56
2023-01-15T21:18:54.255Z,99810.84
2023-01-15T21:21:22.112Z,99806.53
2023-01-15T21:23:48.715Z,99803.81
2023-01-15T21:26:15.632Z,99803.22
2023-01-15T21:28:42.496Z,99797.78
2023-01-15T21:31:10.091Z,99796.75
2023-01-15T21:33:37.773Z,99785.06
2023-01-15T21:36:12.297Z,99783.41
2023-01-15T21:38:39.289Z,99781.78
2023-01-15T21:41:08.813Z,99778.00
2023-01-15T21:43:54.115Z,99775.06
2023-01-15T21:46:22.883Z,99765.63
2023-01-15T21:48:52.140Z,99772.34
2023-01-15T21:51:18.739Z,99754.78
2023-01-15T21:53:45.214Z,99748.88
2023-01-15T21:56:11.753Z,99748.66
2023-01-15T21:58:39.383Z,99754.69
2023-01-15T22:01:14.900Z,99735.47
2023-01-15T22:03:41.572Z,99728.78
2023-01-15T22:06:10.224Z,99728.84
2023-01-15T22:08:37.036Z,99729.69
2023-01-15T22:11:09.560Z,99728.63
2023-01-15T22:13:37.788Z,99723.78
2023-01-15T22:16:04.493Z,99709.66
2023-01-15T22:18:32.548Z,99714.25
2023-01-15T22:21:05.190Z,99713.66
2023-01-15T22:23:32.872Z,99702.25
2023-01-15T22:25:59.516Z,99697.66
2023-01-15T22:28:26.040Z,99696.81
2023-01-15T22:30:52.581Z,99690.84
2023-01-15T22:33:19.139Z,99688.34
2023-01-15T22:35:55.114Z,99693.16
2023-01-15T22:38:21.647Z,99684.47
2023-01-15T22:40:48.137Z,99684.69
2023-01-15T22:43:14.627Z,99671.41
2023-01-15T22:45:41.122Z,99677.31
2023-01-15T22:48:07.728Z,99670.22
2023-01-15T22:50:34.271Z,99666.34
2023-01-15T22:53:00.734Z,99658.22
2023-01-15T22:55:27.321Z,99641.84
2023-01-15T22:57:53.840Z,99664.34
2023-01-15T23:00:20.615Z,99658.59
2023-01-15T23:02:56.269Z,99657.41
2023-01-15T23:05:24.284Z,99654.69
2023-01-15T23:07:51.123Z,99653.31
2023-01-15T23:10:17.759Z,99641.66
2023-01-15T23:12:44.306Z,99649.16
2023-01-15T23:15:13.205Z,99642.56
2023-01-15T23:17:40.335Z,99631.16
2023-01-15T23:20:09.079Z,99632.22
2023-01-15T23:22:35.660Z,99633.88
2023-01-15T23:25:02.247Z,99626.81
2023-01-15T23:27:28.768Z,99645.19
2023-01-15T23:29:55.270Z,99618.56
2023-01-15T23:32:21.923Z,99630.69
2023-01-15T23:34:48.403Z,99630.34
2023-01-15T23:37:14.932Z,99629.78
2023-01-15T23:39:41.404Z,99618.84
2023-01-15T23:42:28.795Z,99619.41
2023-01-15T23:45:13.674Z,99620.50
2023-01-15T23:47:40.190Z,99619.06
2023-01-15T23:50:06.847Z,99609.28
2023-01-15T23:52:33.420Z,99606.81
2023-01-15T23:54:59.949Z,99605.16
2023-01-15T23:57:26.490Z,99596.47
2023-01-15T23:59:53.038Z,99594.13
